createdAt,value
2022-12-22T00:01:29.938Z,53.53
2022-12-22T00:04:15.661Z,55.63
2022-12-22T00:07:01.344Z,54.93
2022-12-22T00:09:47.024Z,56.93
2022-12-22T00:12:35.613Z,55.77
2022-12-22T00:15:22.527Z,55.17
2022-12-22T00:18:08.105Z,58.83
2022-12-22T00:20:53.615Z,50.83
2022-12-22T00:23:38.990Z,59.10
2022-12-22T00:26:24.579Z,51.00
2022-12-22T00:29:15.713Z,56.27
2022-12-22T00:32:02.197Z,50.40
2022-12-22T00:34:48.586Z,49.50
2022-12-22T00:37:34.227Z,55.97
2022-12-22T00:40:20.655Z,53.60
2022-12-22T00:43:06.169Z,59.90
2022-12-22T00:45:51.791Z,60.87
2022-12-22T00:48:43.728Z,51.97
2022-12-22T00:51:30.669Z,58.03
2022-12-22T00:54:17.331Z,50.53
2022-12-22T00:57:02.700Z,56.60
2022-12-22T00:59:49.179Z,56.30
2022-12-22T01:02:34.953Z,54.63
2022-12-22T01:05:22.607Z,58.43
2022-12-22T01:08:08.232Z,59.50
2022-12-22T01:10:54.177Z,54.63
2022-12-22T01:13:39.763Z,52.63
2022-12-22T01:16:28.306Z,52.23
2022-12-22T01:19:14.242Z,51.40
2022-12-22T01:21:59.876Z,57.03
2022-12-22T01:24:47.859Z,52.40
2022-12-22T01:27:33.392Z,43.17
2022-12-22T01:30:18.927Z,49.67
2022-12-22T01:33:04.402Z,49.43
2022-12-22T01:35:52.994Z,45.80
2022-12-22T01:38:38.355Z,48.27
2022-12-22T01:41:27.532Z,48.53
2022-12-22T01:44:13.137Z,49.90
2022-12-22T01:47:04.007Z,47.00
2022-12-22T01:49:58.916Z,39.20
2022-12-22T01:52:52.661Z,42.27
2022-12-22T01:55:44.456Z,47.97
2022-12-22T01:58:44.405Z,37.97
2022-12-22T02:01:30.226Z,43.83
2022-12-22T02:04:16.138Z,37.00
2022-12-22T02:07:04.542Z,44.17
2022-12-22T02:10:23.772Z,42.20
2022-12-22T02:13:32.471Z,45.97
2022-12-22T02:16:30.697Z,40.83
2022-12-22T02:19:24.148Z,47.37
2022-12-22T02:22:28.155Z,44.73
2022-12-22T02:25:29.449Z,41.53
2022-12-22T02:28:15.926Z,44.27
2022-12-22T02:31:01.548Z,43.97
2022-12-22T02:33:47.349Z,46.93
2022-12-22T02:37:05.447Z,44.07
2022-12-22T02:40:09.726Z,44.97
2022-12-22T02:43:13.317Z,45.20
2022-12-22T02:46:23.153Z,47.47
2022-12-22T02:49:20.551Z,46.67
2022-12-22T02:52:15.236Z,46.50
2022-12-22T02:55:02.682Z,42.93
2022-12-22T02:57:48.758Z,40.13
2022-12-22T03:00:34.469Z,41.47
2022-12-22T03:03:20.214Z,47.13
2022-12-22T03:06:07.992Z,39.57
2022-12-22T03:08:53.460Z,43.77
2022-12-22T03:11:39.033Z,38.57
2022-12-22T03:14:24.448Z,38.20
2022-12-22T03:17:10.151Z,38.70
2022-12-22T03:19:55.663Z,37.03
2022-12-22T03:22:41.151Z,40.50
2022-12-22T03:25:27.625Z,40.73
2022-12-22T03:27:54.518Z,39.57
2022-12-22T03:30:21.412Z,36.83
2022-12-22T03:32:48.163Z,38.97
2022-12-22T03:35:15.047Z,41.07
2022-12-22T03:37:41.888Z,41.47
2022-12-22T03:40:09.486Z,40.83
2022-12-22T03:42:55.018Z,38.43
2022-12-22T03:45:40.652Z,41.47
2022-12-22T03:48:07.680Z,35.30
2022-12-22T03:50:34.534Z,41.50
2022-12-22T03:53:01.332Z,37.77
2022-12-22T03:55:28.363Z,38.63
2022-12-22T03:58:00.891Z,35.80
2022-12-22T04:00:28.925Z,36.87
2022-12-22T04:02:59.056Z,37.03
2022-12-22T04:05:27.087Z,35.97
2022-12-22T04:07:55.016Z,36.53
2022-12-22T04:10:40.516Z,32.83
2022-12-22T04:13:07.460Z,35.90
2022-12-22T04:15:34.274Z,33.97
2022-12-22T04:18:01.178Z,37.33
2022-12-22T04:20:28.419Z,34.17
2022-12-22T04:22:56.776Z,33.70
2022-12-22T04:25:25.928Z,33.83
2022-12-22T04:27:52.808Z,37.87
2022-12-22T04:30:19.769Z,37.87
2022-12-22T04:32:46.819Z,32.43
2022-12-22T04:35:13.623Z,35.53
2022-12-22T04:37:41.393Z,32.60
2022-12-22T04:40:08.812Z,29.33
2022-12-22T04:42:35.734Z,34.40
2022-12-22T04:45:02.570Z,34.37
2022-12-22T04:47:29.395Z,37.13
2022-12-22T04:49:56.544Z,27.83
2022-12-22T04:52:23.963Z,35.20
2022-12-22T04:54:50.836Z,35.63
2022-12-22T04:57:17.760Z,29.53
2022-12-22T04:59:44.513Z,39.30
2022-12-22T05:02:12.496Z,36.77
2022-12-22T05:04:39.688Z,33.87
2022-12-22T05:07:07.780Z,35.67
2022-12-22T05:09:34.848Z,34.93
2022-12-22T05:12:21.619Z,36.73
2022-12-22T05:14:48.465Z,34.70
2022-12-22T05:17:16.518Z,33.77
2022-12-22T05:19:43.419Z,31.53
2022-12-22T05:22:10.210Z,32.93
2022-12-22T05:24:37.080Z,33.00
2022-12-22T05:27:03.868Z,29.93
2022-12-22T05:29:30.723Z,33.87
2022-12-22T05:31:57.584Z,36.80
2022-12-22T05:34:24.445Z,33.50
2022-12-22T05:36:51.256Z,33.10
2022-12-22T05:39:18.112Z,37.10
2022-12-22T05:41:45.895Z,32.10
2022-12-22T05:44:13.227Z,35.93
2022-12-22T05:46:40.247Z,35.43
2022-12-22T05:49:07.381Z,34.37
2022-12-22T05:51:34.150Z,31.80
2022-12-22T05:54:00.996Z,34.20
2022-12-22T05:56:27.834Z,29.53
2022-12-22T05:58:54.699Z,30.37
2022-12-22T06:01:21.538Z,32.93
2022-12-22T06:03:48.569Z,36.13
2022-12-22T06:06:15.546Z,30.17
2022-12-22T06:08:42.275Z,34.43
2022-12-22T06:11:09.017Z,31.97
2022-12-22T06:13:35.911Z,30.27
2022-12-22T06:16:02.715Z,29.37
2022-12-22T06:18:29.595Z,30.87
2022-12-22T06:20:56.357Z,28.83
2022-12-22T06:23:23.206Z,34.03
2022-12-22T06:25:57.285Z,31.67
2022-12-22T06:28:25.170Z,30.10
2022-12-22T06:30:52.150Z,32.73
2022-12-22T06:33:18.949Z,29.80
2022-12-22T06:35:45.751Z,32.60
2022-12-22T06:38:12.708Z,31.23
2022-12-22T06:40:39.456Z,27.90
2022-12-22T06:43:10.038Z,26.87
2022-12-22T06:45:40.110Z,31.60
2022-12-22T06:48:08.016Z,27.77
2022-12-22T06:50:35.207Z,28.00
2022-12-22T06:53:02.757Z,29.33
2022-12-22T06:55:29.535Z,32.73
2022-12-22T06:57:56.284Z,27.67
2022-12-22T07:00:23.077Z,32.47
2022-12-22T07:02:50.006Z,27.40
2022-12-22T07:05:17.258Z,27.93
2022-12-22T07:07:44.046Z,28.17
2022-12-22T07:10:11.285Z,29.90
2022-12-22T07:12:38.008Z,33.53
2022-12-22T07:15:05.565Z,27.57
2022-12-22T07:17:32.298Z,32.53
2022-12-22T07:19:59.023Z,29.83
2022-12-22T07:22:30.413Z,33.13
2022-12-22T07:24:57.910Z,30.40
2022-12-22T07:27:24.633Z,28.90
2022-12-22T07:29:51.367Z,32.40
2022-12-22T07:32:18.111Z,34.13
2022-12-22T07:34:45.566Z,31.20
2022-12-22T07:37:13.704Z,28.17
2022-12-22T07:39:40.526Z,25.47
2022-12-22T07:42:25.979Z,26.77
2022-12-22T07:44:52.764Z,27.47
2022-12-22T07:47:19.560Z,31.90
2022-12-22T07:50:04.937Z,26.77
2022-12-22T07:52:31.679Z,35.07
2022-12-22T07:54:58.468Z,36.03
2022-12-22T07:57:26.262Z,38.30
2022-12-22T07:59:53.841Z,34.60
2022-12-22T08:02:20.695Z,29.87
2022-12-22T08:04:47.621Z,33.90
2022-12-22T08:07:14.470Z,32.30
2022-12-22T08:09:41.246Z,31.83
2022-12-22T08:12:08.088Z,30.83
2022-12-22T08:14:34.828Z,31.60
2022-12-22T08:17:01.590Z,27.53
2022-12-22T08:19:28.557Z,26.40
2022-12-22T08:21:55.368Z,28.07
2022-12-22T08:24:22.250Z,30.60
2022-12-22T08:26:55.056Z,31.50
2022-12-22T08:29:27.199Z,34.83
2022-12-22T08:31:54.950Z,35.90
2022-12-22T08:34:22.005Z,29.27
2022-12-22T08:36:52.900Z,31.23
2022-12-22T08:39:21.656Z,28.30
2022-12-22T08:41:51.775Z,31.10
2022-12-22T08:44:27.472Z,24.80
2022-12-22T08:46:56.049Z,27.87
2022-12-22T08:49:23.390Z,31.87
2022-12-22T08:51:50.172Z,29.80
2022-12-22T08:54:17.120Z,31.40
2022-12-22T08:56:44.254Z,32.30
2022-12-22T08:59:11.861Z,29.20
2022-12-22T09:01:42.792Z,30.67
2022-12-22T09:04:12.770Z,27.83
2022-12-22T09:06:41.410Z,33.80
2022-12-22T09:09:10.516Z,30.17
2022-12-22T09:11:38.107Z,26.60
2022-12-22T09:14:05.651Z,25.77
2022-12-22T09:16:33.793Z,26.90
2022-12-22T09:19:01.559Z,31.23
2022-12-22T09:21:29.061Z,28.67
2022-12-22T09:23:56.920Z,31.20
2022-12-22T09:26:25.309Z,31.13
2022-12-22T09:28:52.747Z,27.43
2022-12-22T09:31:20.972Z,24.27
2022-12-22T09:33:48.127Z,25.93
2022-12-22T09:36:17.570Z,28.37
2022-12-22T09:38:44.868Z,33.37
2022-12-22T09:41:32.014Z,31.13
2022-12-22T09:44:12.792Z,32.67
2022-12-22T09:46:40.509Z,28.07
2022-12-22T09:49:07.684Z,29.73
2022-12-22T09:51:41.663Z,31.27
2022-12-22T09:54:10.925Z,30.43
2022-12-22T09:56:37.731Z,28.10
2022-12-22T09:59:15.427Z,30.70
2022-12-22T10:01:58.553Z,38.27
2022-12-22T10:04:44.529Z,35.17
2022-12-22T10:07:38.458Z,29.07
2022-12-22T10:10:12.513Z,32.47
2022-12-22T10:12:39.301Z,35.20
2022-12-22T10:15:13.287Z,35.30
2022-12-22T10:17:43.696Z,34.90
2022-12-22T10:20:20.789Z,29.73
2022-12-22T10:23:12.418Z,31.77
2022-12-22T10:28:48.099Z,33.23
2022-12-22T10:31:21.556Z,34.97
2022-12-22T10:33:51.710Z,30.93
2022-12-22T10:36:28.599Z,34.80
2022-12-22T10:39:10.520Z,33.07
2022-12-22T10:41:42.443Z,33.53
2022-12-22T10:44:23.266Z,34.13
2022-12-22T10:46:55.443Z,36.77
2022-12-22T10:49:25.359Z,34.50
2022-12-22T10:51:58.480Z,35.47
2022-12-22T10:54:41.168Z,30.47
2022-12-22T10:57:14.026Z,36.30
2022-12-22T10:59:48.599Z,39.20
2022-12-22T11:02:21.606Z,40.53
2022-12-22T11:04:49.988Z,32.77
2022-12-22T11:07:17.123Z,34.83
2022-12-22T11:09:43.919Z,32.97
2022-12-22T11:12:49.490Z,32.63
2022-12-22T11:15:55.592Z,34.67
2022-12-22T11:18:31.233Z,32.40
2022-12-22T11:21:10.304Z,32.13
2022-12-22T11:24:11.775Z,32.03
2022-12-22T11:27:22.470Z,33.00
2022-12-22T11:30:16.593Z,41.33
2022-12-22T11:33:06.910Z,44.73
2022-12-22T11:35:50.885Z,33.47
2022-12-22T11:38:46.780Z,31.77
2022-12-22T11:41:31.752Z,33.67
2022-12-22T11:44:22.878Z,34.30
2022-12-22T11:46:52.509Z,32.87
2022-12-22T11:49:37.274Z,34.77
2022-12-22T11:52:33.739Z,33.70
2022-12-22T11:55:29.470Z,27.97
2022-12-22T11:58:16.407Z,31.87
2022-12-22T12:04:10.302Z,35.17
2022-12-22T12:06:47.405Z,44.37
2022-12-22T12:09:25.387Z,36.20
2022-12-22T12:12:33.915Z,39.97
2022-12-22T12:15:14.635Z,37.73
2022-12-22T12:18:02.020Z,36.17
2022-12-22T12:20:47.530Z,38.70
2022-12-22T12:23:51.459Z,38.17
2022-12-22T12:26:23.648Z,39.47
2022-12-22T12:29:05.296Z,37.00
2022-12-22T12:31:38.671Z,36.00
2022-12-22T12:34:09.450Z,39.10
2022-12-22T12:36:54.092Z,38.73
2022-12-22T12:39:43.467Z,29.20
2022-12-22T12:42:28.483Z,35.47
2022-12-22T12:44:55.432Z,35.30
2022-12-22T12:47:28.844Z,30.13
2022-12-22T12:50:29.261Z,33.67
2022-12-22T12:52:55.999Z,33.13
2022-12-22T12:55:40.717Z,40.40
2022-12-22T12:58:12.563Z,32.97
2022-12-22T13:00:46.642Z,34.63
2022-12-22T13:03:52.974Z,33.23
2022-12-22T13:06:49.210Z,33.00
2022-12-22T13:12:38.885Z,29.07
2022-12-22T13:15:28.929Z,33.40
2022-12-22T13:17:55.904Z,33.60
2022-12-22T13:20:30.827Z,38.13
2022-12-22T13:23:00.057Z,33.57
2022-12-22T13:25:42.036Z,34.27
2022-12-22T13:28:16.997Z,31.87
2022-12-22T13:30:57.117Z,35.60
2022-12-22T13:33:27.258Z,36.43
2022-12-22T13:35:59.176Z,37.83
2022-12-22T13:38:31.635Z,39.27
2022-12-22T13:41:02.485Z,34.53
2022-12-22T13:43:31.880Z,34.30
2022-12-22T13:46:02.567Z,38.80
2022-12-22T13:48:45.816Z,36.00
2022-12-22T13:51:20.555Z,36.57
2022-12-22T13:54:08.232Z,37.27
2022-12-22T13:56:52.044Z,31.03
2022-12-22T13:59:21.821Z,38.03
2022-12-22T14:01:50.577Z,36.03
2022-12-22T14:04:17.546Z,32.07
2022-12-22T14:06:44.321Z,39.90
2022-12-22T14:09:19.816Z,36.70
2022-12-22T14:11:56.734Z,42.23
2022-12-22T14:14:28.531Z,45.27
2022-12-22T14:16:58.429Z,38.30
2022-12-22T14:19:26.686Z,34.23
2022-12-22T14:22:23.195Z,36.30
2022-12-22T14:24:57.093Z,44.00
2022-12-22T14:27:40.503Z,33.83
2022-12-22T14:30:15.833Z,38.13
2022-12-22T14:32:52.456Z,34.50
2022-12-22T14:35:21.284Z,32.47
2022-12-22T14:37:52.964Z,34.63
2022-12-22T14:40:41.971Z,34.53
2022-12-22T14:43:17.814Z,30.17
2022-12-22T14:45:50.072Z,33.47
2022-12-22T14:48:39.279Z,32.40
2022-12-22T14:51:06.276Z,33.50
2022-12-22T14:53:43.845Z,31.90
2022-12-22T14:56:12.930Z,33.23
2022-12-22T14:58:42.236Z,35.53
2022-12-22T15:01:28.747Z,30.73
2022-12-22T15:04:04.645Z,33.30
2022-12-22T15:06:32.051Z,32.43
2022-12-22T15:09:07.495Z,27.60
2022-12-22T15:11:36.207Z,29.03
2022-12-22T15:14:04.480Z,34.67
2022-12-22T15:16:31.623Z,33.07
2022-12-22T15:18:58.468Z,28.17
2022-12-22T15:21:25.211Z,35.20
2022-12-22T15:23:51.972Z,33.10
2022-12-22T15:26:18.708Z,32.03
2022-12-22T15:28:45.458Z,33.00
2022-12-22T15:31:17.586Z,31.13
2022-12-22T15:33:45.669Z,33.67
2022-12-22T15:36:14.041Z,32.17
2022-12-22T15:38:40.969Z,30.60
2022-12-22T15:41:08.269Z,28.43
2022-12-22T15:43:57.360Z,28.80
2022-12-22T15:46:24.789Z,31.83
2022-12-22T15:48:52.213Z,31.60
2022-12-22T15:51:27.926Z,32.70
2022-12-22T15:53:56.155Z,30.63
2022-12-22T15:56:25.551Z,34.87
2022-12-22T15:58:52.986Z,30.67
2022-12-22T16:01:19.832Z,34.70
2022-12-22T16:03:46.856Z,34.80
2022-12-22T16:06:16.231Z,29.30
2022-12-22T16:08:49.406Z,34.20
2022-12-22T16:11:17.208Z,33.33
2022-12-22T16:13:44.371Z,31.93
2022-12-22T16:16:11.813Z,32.40
2022-12-22T16:18:38.641Z,36.40
2022-12-22T16:21:11.795Z,31.90
2022-12-22T16:23:40.456Z,31.73
2022-12-22T16:26:07.284Z,33.30
2022-12-22T16:28:34.193Z,33.63
2022-12-22T16:31:01.356Z,32.40
2022-12-22T16:33:28.950Z,33.57
2022-12-22T16:35:57.851Z,36.27
2022-12-22T16:38:24.776Z,35.87
2022-12-22T16:40:53.411Z,32.03
2022-12-22T16:46:16.558Z,30.77
2022-12-22T16:48:49.683Z,35.57
2022-12-22T16:51:24.584Z,33.73
2022-12-22T16:53:51.707Z,35.40
2022-12-22T16:56:23.329Z,30.97
2022-12-22T16:58:50.536Z,32.70
2022-12-22T17:01:31.941Z,31.97
2022-12-22T17:04:02.727Z,31.00
2022-12-22T17:06:29.624Z,28.83
2022-12-22T17:08:56.568Z,32.83
2022-12-22T17:11:25.155Z,31.23
2022-12-22T17:13:57.015Z,27.80
2022-12-22T17:16:23.992Z,29.90
2022-12-22T17:18:50.848Z,28.40
2022-12-22T17:21:20.149Z,27.83
2022-12-22T17:23:53.653Z,30.67
2022-12-22T17:26:24.107Z,27.30
2022-12-22T17:28:52.058Z,30.57
2022-12-22T17:31:22.988Z,30.17
2022-12-22T17:33:49.825Z,26.73
2022-12-22T17:36:46.609Z,28.40
2022-12-22T17:39:19.544Z,26.00
2022-12-22T17:41:50.603Z,26.27
2022-12-22T17:44:24.465Z,29.10
2022-12-22T17:46:51.508Z,30.43
2022-12-22T17:49:20.083Z,30.53
2022-12-22T17:51:47.347Z,32.30
2022-12-22T17:54:22.450Z,27.77
2022-12-22T17:56:49.361Z,30.90
2022-12-22T17:59:16.126Z,30.10
2022-12-22T18:01:43.013Z,24.03
2022-12-22T18:04:10.211Z,27.63
2022-12-22T18:06:39.373Z,32.70
2022-12-22T18:09:07.432Z,28.17
2022-12-22T18:11:36.322Z,32.83
2022-12-22T18:14:04.999Z,28.13
2022-12-22T18:16:31.973Z,28.50
2022-12-22T18:18:58.721Z,25.13
2022-12-22T18:21:25.674Z,25.80
2022-12-22T18:23:53.430Z,25.80
2022-12-22T18:26:24.310Z,28.87
2022-12-22T18:28:51.389Z,26.70
2022-12-22T18:31:18.884Z,27.43
2022-12-22T18:33:45.815Z,26.33
2022-12-22T18:36:27.412Z,31.30
2022-12-22T18:38:54.983Z,28.53
2022-12-22T18:41:24.161Z,27.10
2022-12-22T18:43:51.333Z,32.17
2022-12-22T18:46:18.911Z,27.87
2022-12-22T18:48:47.498Z,28.43
2022-12-22T18:51:19.147Z,27.80
2022-12-22T18:53:46.311Z,28.60
2022-12-22T18:56:14.046Z,29.77
2022-12-22T18:58:41.685Z,32.23
2022-12-22T19:01:23.397Z,28.23
2022-12-22T19:03:52.291Z,31.13
2022-12-22T19:06:20.899Z,28.07
2022-12-22T19:08:48.415Z,28.90
2022-12-22T19:11:22.915Z,26.13
2022-12-22T19:13:51.772Z,33.27
2022-12-22T19:16:24.923Z,26.83
2022-12-22T19:18:51.735Z,24.53
2022-12-22T19:21:19.517Z,27.67
2022-12-22T19:23:46.418Z,28.80
2022-12-22T19:26:31.053Z,29.10
2022-12-22T19:29:01.492Z,29.07
2022-12-22T19:31:31.622Z,30.93
2022-12-22T19:34:00.660Z,26.40
2022-12-22T19:36:29.897Z,29.63
2022-12-22T19:39:03.851Z,30.87
2022-12-22T19:41:35.194Z,26.43
2022-12-22T19:44:04.189Z,26.57
2022-12-22T19:46:34.241Z,24.07
2022-12-22T19:49:01.511Z,31.07
2022-12-22T19:51:28.878Z,28.00
2022-12-22T19:53:55.641Z,26.13
2022-12-22T19:56:27.809Z,24.43
2022-12-22T19:58:56.552Z,26.80
2022-12-22T20:01:23.546Z,24.53
2022-12-22T20:03:50.487Z,28.80
2022-12-22T20:06:17.777Z,27.50
2022-12-22T20:08:44.853Z,27.13
2022-12-22T20:11:20.796Z,25.23
2022-12-22T20:13:48.106Z,29.10
2022-12-22T20:16:16.251Z,24.97
2022-12-22T20:18:46.261Z,26.70
2022-12-22T20:21:30.703Z,25.93
2022-12-22T20:24:00.643Z,25.47
2022-12-22T20:26:27.866Z,26.07
2022-12-22T20:28:55.134Z,25.03
2022-12-22T20:31:24.584Z,25.73
2022-12-22T20:33:54.806Z,22.60
2022-12-22T20:36:27.804Z,30.33
2022-12-22T20:38:57.544Z,23.43
2022-12-22T20:41:26.320Z,21.97
2022-12-22T20:43:53.858Z,24.50
2022-12-22T20:46:24.587Z,20.17
2022-12-22T20:48:58.044Z,23.27
2022-12-22T20:51:27.954Z,21.50
2022-12-22T20:53:55.827Z,29.43
2022-12-22T20:56:25.343Z,27.00
2022-12-22T20:58:52.125Z,24.43
2022-12-22T21:01:19.239Z,24.53
2022-12-22T21:03:46.303Z,25.63
2022-12-22T21:06:23.386Z,21.60
2022-12-22T21:08:50.789Z,24.77
2022-12-22T21:11:17.540Z,22.03
2022-12-22T21:13:46.036Z,23.50
2022-12-22T21:16:16.479Z,23.67
2022-12-22T21:18:43.447Z,23.57
2022-12-22T21:21:11.835Z,23.70
2022-12-22T21:23:39.004Z,22.63
2022-12-22T21:26:15.248Z,22.43
2022-12-22T21:28:42.223Z,20.97
2022-12-22T21:31:09.100Z,24.00
2022-12-22T21:33:37.172Z,24.90
2022-12-22T21:36:04.662Z,24.17
2022-12-22T21:38:33.123Z,24.20
2022-12-22T21:41:00.151Z,22.87
2022-12-22T21:43:26.984Z,21.70
2022-12-22T21:45:53.859Z,25.70
2022-12-22T21:48:21.487Z,26.77
2022-12-22T21:50:50.377Z,25.93
2022-12-22T21:53:22.422Z,24.07
2022-12-22T21:55:50.164Z,25.80
2022-12-22T21:58:17.675Z,24.07
2022-12-22T22:00:48.188Z,27.23
2022-12-22T22:03:16.112Z,19.70
2022-12-22T22:05:43.656Z,26.47
2022-12-22T22:08:12.225Z,25.53
2022-12-22T22:10:42.283Z,23.90
2022-12-22T22:13:12.847Z,23.93
2022-12-22T22:15:40.939Z,24.53
2022-12-22T22:18:15.670Z,24.57
2022-12-22T22:20:42.549Z,28.47
2022-12-22T22:23:12.195Z,24.50
2022-12-22T22:25:39.411Z,23.10
2022-12-22T22:28:06.553Z,23.97
2022-12-22T22:30:33.441Z,22.97
2022-12-22T22:33:00.292Z,26.67
2022-12-22T22:35:27.952Z,28.23
2022-12-22T22:37:55.984Z,28.50
2022-12-22T22:40:25.138Z,26.77
2022-12-22T22:42:52.192Z,25.23
2022-12-22T22:45:23.332Z,25.97
2022-12-22T22:47:51.523Z,29.70
2022-12-22T22:50:22.629Z,26.87
2022-12-22T22:52:49.733Z,24.70
2022-12-22T22:55:16.678Z,28.60
2022-12-22T22:57:43.567Z,23.37
2022-12-22T23:00:14.219Z,26.20
2022-12-22T23:02:42.105Z,20.93
2022-12-22T23:05:09.613Z,24.40
2022-12-22T23:07:36.811Z,25.53
2022-12-22T23:10:05.371Z,23.23
2022-12-22T23:12:32.313Z,26.40
2022-12-22T23:15:01.908Z,23.57
2022-12-22T23:17:29.399Z,23.03
2022-12-22T23:19:56.376Z,23.63
2022-12-22T23:22:23.671Z,25.70
2022-12-22T23:24:50.668Z,27.10
2022-12-22T23:27:17.584Z,35.73
2022-12-22T23:29:44.464Z,66.60
2022-12-22T23:32:12.449Z,28.70
2022-12-22T23:34:39.265Z,27.20
2022-12-22T23:37:07.019Z,25.03
2022-12-22T23:39:34.330Z,21.33
2022-12-22T23:42:02.247Z,24.00
2022-12-22T23:44:29.091Z,22.67
2022-12-22T23:46:56.892Z,20.13
2022-12-22T23:49:24.043Z,23.10
2022-12-22T23:51:50.891Z,22.70
2022-12-22T23:54:17.673Z,26.00
2022-12-22T23:56:44.528Z,21.33
2022-12-22T23:59:12.284Z,25.00
